createdAt,value
2023-03-31T00:00:30.574Z,3.75
2023-03-31T00:02:58.773Z,2.78
2023-03-31T00:05:26.624Z,2.40
2023-03-31T00:08:03.869Z,2.43
2023-03-31T00:10:33.665Z,2.78
2023-03-31T00:13:01.911Z,2.70
2023-03-31T00:15:30.297Z,3.12
2023-03-31T00:18:00.575Z,2.75
2023-03-31T00:20:28.352Z,3.07
2023-03-31T00:22:57.770Z,2.80
2023-03-31T00:25:25.847Z,2.80
2023-03-31T00:27:53.724Z,2.75
2023-03-31T00:30:21.439Z,3.05
2023-03-31T00:32:49.445Z,2.83
2023-03-31T00:35:16.973Z,3.05
2023-03-31T00:37:45.805Z,3.05
2023-03-31T00:40:13.703Z,3.12
2023-03-31T00:42:42.393Z,2.97
2023-03-31T00:45:15.513Z,3.13
2023-03-31T00:47:52.492Z,3.53
2023-03-31T00:50:29.128Z,3.30
2023-03-31T00:53:01.433Z,2.87
2023-03-31T00:55:35.344Z,3.05
2023-03-31T00:58:04.731Z,3.00
2023-03-31T01:00:32.371Z,2.90
2023-03-31T01:03:03.637Z,2.92
2023-03-31T01:05:36.058Z,3.22
2023-03-31T01:08:05.704Z,2.92
2023-03-31T01:10:38.725Z,3.10
2023-03-31T01:13:06.390Z,2.90
2023-03-31T01:15:34.142Z,2.92
2023-03-31T01:18:03.702Z,3.33
2023-03-31T01:20:58.529Z,2.90
2023-03-31T01:23:54.979Z,2.70
2023-03-31T01:26:55.082Z,2.67
2023-03-31T01:29:50.654Z,2.70
2023-03-31T01:32:39.792Z,3.08
2023-03-31T01:35:32.285Z,3.37
2023-03-31T01:38:35.507Z,2.90
2023-03-31T01:41:15.657Z,3.20
2023-03-31T01:44:15.005Z,3.30
2023-03-31T01:46:51.954Z,3.75
2023-03-31T01:49:27.966Z,2.90
2023-03-31T01:52:24.154Z,3.70
2023-03-31T01:54:55.407Z,2.75
2023-03-31T01:57:36.855Z,3.62
2023-03-31T02:00:08.807Z,3.70
2023-03-31T02:02:50.254Z,3.03
2023-03-31T02:05:26.231Z,3.67
2023-03-31T02:08:01.546Z,3.03
2023-03-31T02:10:31.528Z,3.58
2023-03-31T02:13:01.245Z,3.67
2023-03-31T02:15:31.434Z,3.75
2023-03-31T02:18:00.844Z,3.70
2023-03-31T02:20:29.748Z,3.35
2023-03-31T02:22:57.603Z,3.00
2023-03-31T02:25:47.574Z,3.55
2023-03-31T02:28:21.924Z,3.28
2023-03-31T02:31:08.204Z,3.40
2023-03-31T02:33:36.124Z,2.92
2023-03-31T02:36:06.194Z,2.92
2023-03-31T02:38:38.414Z,2.95
2023-03-31T02:41:06.868Z,3.60
2023-03-31T02:43:34.396Z,3.00
2023-03-31T02:46:01.853Z,3.05
2023-03-31T02:48:36.550Z,2.87
2023-03-31T02:51:11.250Z,3.35
2023-03-31T02:53:50.967Z,3.00
2023-03-31T02:56:30.687Z,3.13
2023-03-31T02:59:23.435Z,3.20
2023-03-31T03:02:14.123Z,3.08
2023-03-31T03:05:34.789Z,3.12
2023-03-31T03:08:19.242Z,2.75
2023-03-31T03:11:08.316Z,3.13
2023-03-31T03:13:48.075Z,3.05
2023-03-31T03:16:27.277Z,3.28
2023-03-31T03:19:03.669Z,2.78
2023-03-31T03:21:32.210Z,2.87
2023-03-31T03:24:00.236Z,3.00
2023-03-31T03:26:28.317Z,3.10
2023-03-31T03:28:57.065Z,3.30
2023-03-31T03:31:26.178Z,3.03
2023-03-31T03:33:53.880Z,3.05
2023-03-31T03:36:22.996Z,3.00
2023-03-31T03:38:51.002Z,3.40
2023-03-31T03:41:18.445Z,3.45
2023-03-31T03:43:46.325Z,3.25
2023-03-31T03:46:13.788Z,3.33
2023-03-31T03:48:41.366Z,2.80
2023-03-31T03:51:09.077Z,2.75
2023-03-31T03:53:36.563Z,3.60
2023-03-31T03:56:04.495Z,3.37
2023-03-31T03:58:32.599Z,3.22
2023-03-31T04:01:00.147Z,2.60
2023-03-31T04:03:28.005Z,2.80
2023-03-31T04:05:55.545Z,2.87
2023-03-31T04:08:23.059Z,2.58
2023-03-31T04:10:50.930Z,3.10
2023-03-31T04:13:19.197Z,3.20
2023-03-31T04:15:47.022Z,2.55
2023-03-31T04:18:22.887Z,2.60
2023-03-31T04:21:06.284Z,2.65
2023-03-31T04:23:46.850Z,2.70
2023-03-31T04:26:16.508Z,3.40
2023-03-31T04:28:50.601Z,3.20
2023-03-31T04:31:27.095Z,3.22
2023-03-31T04:33:55.022Z,3.20
2023-03-31T04:36:22.671Z,3.05
2023-03-31T04:38:54.556Z,2.97
2023-03-31T04:41:23.078Z,3.78
2023-03-31T04:43:51.071Z,3.97
2023-03-31T04:46:18.670Z,4.32
2023-03-31T04:48:46.526Z,3.55
2023-03-31T04:51:15.606Z,3.60
2023-03-31T04:53:43.116Z,3.75
2023-03-31T04:56:11.293Z,4.20
2023-03-31T04:58:39.022Z,3.50
2023-03-31T05:01:06.804Z,3.75
2023-03-31T05:03:34.927Z,3.43
2023-03-31T05:06:02.528Z,3.45
2023-03-31T05:08:30.283Z,4.72
2023-03-31T05:10:58.380Z,5.00
2023-03-31T05:13:25.881Z,3.95
2023-03-31T05:15:53.458Z,4.40
2023-03-31T05:18:21.308Z,3.35
2023-03-31T05:20:48.983Z,2.78
2023-03-31T05:23:16.871Z,2.50
2023-03-31T05:25:45.659Z,3.08
2023-03-31T05:28:13.222Z,2.90
2023-03-31T05:30:41.003Z,2.80
2023-03-31T05:33:09.903Z,2.78
2023-03-31T05:35:40.840Z,3.70
2023-03-31T05:38:08.838Z,3.30
2023-03-31T05:40:36.572Z,3.37
2023-03-31T05:43:04.114Z,3.00
2023-03-31T05:45:31.603Z,2.85
2023-03-31T05:47:59.759Z,2.70
2023-03-31T05:50:27.258Z,2.75
2023-03-31T05:52:54.900Z,2.70
2023-03-31T05:55:36.124Z,3.37
2023-03-31T05:58:03.672Z,3.10
2023-03-31T06:00:32.101Z,3.35
2023-03-31T06:02:59.989Z,3.00
2023-03-31T06:05:27.902Z,3.03
2023-03-31T06:07:56.840Z,3.05
2023-03-31T06:10:24.947Z,2.83
2023-03-31T06:12:52.477Z,3.17
2023-03-31T06:15:20.203Z,3.37
2023-03-31T06:17:48.660Z,2.90
2023-03-31T06:20:24.614Z,3.17
2023-03-31T06:22:55.931Z,3.35
2023-03-31T06:25:23.386Z,3.05
2023-03-31T06:27:50.890Z,2.90
2023-03-31T06:30:18.951Z,2.70
2023-03-31T06:32:46.570Z,2.25
2023-03-31T06:35:14.182Z,3.22
2023-03-31T06:37:41.903Z,2.97
2023-03-31T06:40:10.223Z,2.85
2023-03-31T06:42:37.774Z,2.77
2023-03-31T06:45:06.051Z,2.55
2023-03-31T06:47:33.572Z,2.75
2023-03-31T06:50:01.540Z,2.40
2023-03-31T06:52:29.374Z,2.97
2023-03-31T06:54:56.909Z,2.30
2023-03-31T06:57:24.536Z,2.17
2023-03-31T06:59:52.515Z,2.40
2023-03-31T07:02:20.711Z,2.08
2023-03-31T07:04:48.338Z,2.33
2023-03-31T07:07:16.577Z,2.27
2023-03-31T07:09:44.708Z,1.67
2023-03-31T07:12:12.306Z,1.80
2023-03-31T07:14:40.333Z,2.12
2023-03-31T07:17:07.840Z,1.62
2023-03-31T07:19:37.917Z,2.37
2023-03-31T07:22:06.195Z,1.98
2023-03-31T07:24:33.767Z,2.08
2023-03-31T07:27:01.290Z,1.83
2023-03-31T07:29:29.200Z,2.17
2023-03-31T07:31:56.883Z,2.57
2023-03-31T07:34:26.612Z,2.20
2023-03-31T07:36:57.596Z,2.30
2023-03-31T07:39:25.272Z,2.03
2023-03-31T07:41:52.838Z,2.10
2023-03-31T07:44:21.924Z,1.87
2023-03-31T07:46:52.242Z,2.33
2023-03-31T07:49:20.087Z,2.00
2023-03-31T07:51:47.683Z,2.50
2023-03-31T07:54:15.601Z,2.85
2023-03-31T07:56:43.468Z,2.33
2023-03-31T07:59:11.346Z,2.42
2023-03-31T08:01:38.929Z,2.20
2023-03-31T08:04:07.118Z,2.78
2023-03-31T08:06:34.628Z,2.60
2023-03-31T08:09:02.879Z,2.37
2023-03-31T08:11:31.169Z,2.22
2023-03-31T08:13:58.751Z,2.12
2023-03-31T08:16:26.470Z,2.40
2023-03-31T08:18:54.360Z,2.00
2023-03-31T08:21:24.769Z,1.90
2023-03-31T08:23:54.996Z,2.15
2023-03-31T08:26:24.392Z,2.72
2023-03-31T08:28:52.697Z,2.30
2023-03-31T08:31:21.567Z,2.42
2023-03-31T08:33:49.371Z,2.00
2023-03-31T08:36:16.980Z,2.15
2023-03-31T08:38:49.775Z,2.05
2023-03-31T08:41:26.871Z,2.28
2023-03-31T08:43:56.418Z,2.33
2023-03-31T08:46:26.444Z,2.50
2023-03-31T08:48:56.436Z,2.20
2023-03-31T08:51:29.553Z,2.15
2023-03-31T08:54:10.087Z,2.12
2023-03-31T08:56:42.832Z,2.10
2023-03-31T08:59:39.047Z,2.37
2023-03-31T09:02:26.353Z,2.40
2023-03-31T09:05:23.662Z,1.95
2023-03-31T09:08:24.775Z,2.50
2023-03-31T09:10:58.650Z,2.47
2023-03-31T09:13:52.285Z,2.63
2023-03-31T09:16:32.304Z,1.98
2023-03-31T09:19:02.137Z,1.98
2023-03-31T09:21:33.242Z,2.40
2023-03-31T09:24:32.849Z,2.28
2023-03-31T09:27:05.906Z,2.63
2023-03-31T09:29:44.054Z,2.97
2023-03-31T09:32:21.547Z,2.47
2023-03-31T09:35:23.456Z,2.10
2023-03-31T09:37:52.265Z,1.90
2023-03-31T09:40:25.525Z,2.20
2023-03-31T09:43:23.873Z,1.67
2023-03-31T09:46:08.532Z,1.90
2023-03-31T09:48:37.978Z,2.25
2023-03-31T09:51:19.016Z,1.50
2023-03-31T09:53:55.387Z,2.20
2023-03-31T09:56:42.118Z,1.65
2023-03-31T09:59:18.270Z,1.83
2023-03-31T10:01:50.388Z,2.25
2023-03-31T10:04:31.117Z,2.33
2023-03-31T10:07:01.654Z,1.60
2023-03-31T10:09:33.747Z,2.15
2023-03-31T10:12:19.668Z,2.15
2023-03-31T10:14:49.997Z,2.62
2023-03-31T10:20:33.254Z,2.28
2023-03-31T10:23:14.880Z,2.55
2023-03-31T10:25:43.149Z,2.00
2023-03-31T10:28:13.876Z,2.05
2023-03-31T10:30:48.379Z,2.00
2023-03-31T10:33:23.053Z,2.17
2023-03-31T10:35:56.602Z,2.30
2023-03-31T10:38:31.704Z,2.00
2023-03-31T10:41:03.118Z,2.65
2023-03-31T10:43:38.452Z,2.33
2023-03-31T10:46:06.168Z,2.30
2023-03-31T10:48:38.675Z,2.55
2023-03-31T10:51:29.865Z,2.35
2023-03-31T10:54:01.633Z,1.70
2023-03-31T10:56:42.480Z,1.87
2023-03-31T10:59:39.360Z,1.55
2023-03-31T11:02:28.867Z,2.25
2023-03-31T11:05:17.353Z,1.75
2023-03-31T11:08:03.332Z,2.08
2023-03-31T11:11:01.986Z,1.60
2023-03-31T11:13:41.580Z,1.85
2023-03-31T11:16:28.350Z,1.90
2023-03-31T11:19:39.571Z,2.37
2023-03-31T11:22:14.766Z,2.30
2023-03-31T11:25:17.454Z,1.93
2023-03-31T11:27:54.302Z,2.47
2023-03-31T11:30:31.073Z,1.77
2023-03-31T11:33:20.002Z,1.90
2023-03-31T11:36:17.023Z,1.90
2023-03-31T11:39:10.203Z,2.33
2023-03-31T11:41:50.415Z,1.77
2023-03-31T11:44:22.837Z,1.77
2023-03-31T11:46:56.036Z,2.37
2023-03-31T11:49:39.005Z,1.95
2023-03-31T11:52:14.484Z,1.97
2023-03-31T11:54:52.293Z,1.77
2023-03-31T11:57:45.389Z,2.30
2023-03-31T12:00:30.186Z,2.00
2023-03-31T12:03:21.980Z,1.90
2023-03-31T12:06:03.247Z,1.90
2023-03-31T12:08:40.682Z,2.03
2023-03-31T12:11:15.641Z,2.30
2023-03-31T12:13:55.804Z,1.85
2023-03-31T12:16:33.849Z,1.80
2023-03-31T12:19:23.184Z,1.77
2023-03-31T12:21:54.511Z,2.33
2023-03-31T12:24:22.438Z,2.42
2023-03-31T12:27:00.002Z,1.70
2023-03-31T12:29:38.666Z,1.95
2023-03-31T12:32:18.875Z,1.70
2023-03-31T12:35:16.520Z,1.85
2023-03-31T12:38:11.329Z,1.60
2023-03-31T12:40:46.619Z,1.55
2023-03-31T12:43:45.243Z,1.85
2023-03-31T12:46:22.221Z,1.37
2023-03-31T12:48:56.219Z,1.90
2023-03-31T12:52:01.004Z,2.00
2023-03-31T12:54:38.161Z,1.58
2023-03-31T12:57:08.855Z,2.20
2023-03-31T12:59:41.767Z,3.23
2023-03-31T13:02:15.441Z,1.80
2023-03-31T13:05:47.478Z,2.17
2023-03-31T13:08:53.654Z,3.47
2023-03-31T13:11:37.511Z,2.90
2023-03-31T13:14:20.268Z,2.10
2023-03-31T13:17:12.957Z,2.60
2023-03-31T13:19:48.555Z,2.03
2023-03-31T13:22:29.538Z,1.80
2023-03-31T13:25:35.585Z,1.87
2023-03-31T13:28:21.559Z,1.97
2023-03-31T13:30:55.122Z,1.67
2023-03-31T13:33:28.845Z,1.65
2023-03-31T13:36:14.890Z,2.08
2023-03-31T13:39:07.190Z,2.37
2023-03-31T13:41:48.992Z,2.30
2023-03-31T13:44:38.474Z,1.83
2023-03-31T13:47:25.111Z,1.98
2023-03-31T13:50:03.985Z,2.10
2023-03-31T13:52:53.819Z,2.10
2023-03-31T13:55:53.472Z,1.40
2023-03-31T13:58:35.442Z,2.55
2023-03-31T14:01:23.153Z,2.10
2023-03-31T14:04:21.361Z,2.37
2023-03-31T14:06:52.856Z,2.28
2023-03-31T14:09:30.754Z,1.70
2023-03-31T14:12:02.318Z,1.45
2023-03-31T14:14:30.110Z,1.90
2023-03-31T14:16:59.938Z,1.80
2023-03-31T14:19:33.769Z,2.28
2023-03-31T14:22:16.663Z,2.60
2023-03-31T14:24:49.921Z,1.83
2023-03-31T14:27:26.623Z,1.98
2023-03-31T14:30:06.478Z,2.05
2023-03-31T14:32:49.041Z,3.03
2023-03-31T14:35:38.859Z,1.80
2023-03-31T14:38:17.090Z,1.67
2023-03-31T14:40:48.193Z,2.33
2023-03-31T14:43:24.989Z,2.22
2023-03-31T14:45:58.434Z,1.85
2023-03-31T14:48:29.390Z,2.40
2023-03-31T14:51:01.437Z,1.77
2023-03-31T14:53:29.558Z,3.25
2023-03-31T14:56:06.783Z,2.30
2023-03-31T14:58:37.405Z,2.25
2023-03-31T15:01:09.830Z,1.90
2023-03-31T15:03:41.657Z,2.65
2023-03-31T15:06:12.452Z,2.28
2023-03-31T15:08:42.570Z,1.90
2023-03-31T15:11:17.181Z,2.20
2023-03-31T15:14:04.321Z,3.57
2023-03-31T15:16:43.213Z,2.03
2023-03-31T15:19:21.723Z,2.20
2023-03-31T15:21:56.474Z,1.70
2023-03-31T15:24:24.339Z,2.17
2023-03-31T15:27:01.136Z,2.20
2023-03-31T15:29:42.901Z,2.33
2023-03-31T15:32:23.154Z,2.62
2023-03-31T15:34:51.542Z,2.42
2023-03-31T15:37:32.750Z,5.60
2023-03-31T15:40:02.154Z,6.27
2023-03-31T15:42:29.778Z,5.87
2023-03-31T15:45:21.218Z,3.75
2023-03-31T15:47:54.332Z,3.03
2023-03-31T15:50:24.073Z,2.10
2023-03-31T15:52:54.494Z,3.10
2023-03-31T15:55:33.414Z,1.60
2023-03-31T15:58:01.581Z,1.90
2023-03-31T16:00:41.259Z,1.95
2023-03-31T16:03:17.053Z,2.78
2023-03-31T16:05:54.570Z,2.60
2023-03-31T16:08:38.058Z,2.80
2023-03-31T16:11:09.490Z,2.35
2023-03-31T16:13:40.912Z,2.55
2023-03-31T16:16:13.448Z,1.95
2023-03-31T16:18:43.669Z,1.90
2023-03-31T16:21:12.829Z,1.73
2023-03-31T16:23:41.648Z,2.58
2023-03-31T16:26:09.489Z,1.80
2023-03-31T16:28:38.246Z,2.28
2023-03-31T16:31:30.474Z,2.10
2023-03-31T16:33:58.228Z,2.28
2023-03-31T16:36:25.983Z,2.67
2023-03-31T16:38:54.178Z,2.20
2023-03-31T16:41:23.492Z,2.70
2023-03-31T16:43:54.783Z,2.27
2023-03-31T16:46:23.511Z,2.95
2023-03-31T16:48:52.477Z,2.78
2023-03-31T16:51:20.450Z,2.12
2023-03-31T16:53:48.295Z,3.90
2023-03-31T16:56:16.257Z,2.83
2023-03-31T16:58:44.103Z,2.83
2023-03-31T17:01:12.395Z,2.33
2023-03-31T17:03:41.923Z,3.20
2023-03-31T17:06:12.070Z,2.90
2023-03-31T17:08:40.380Z,2.53
2023-03-31T17:11:11.747Z,2.75
2023-03-31T17:13:40.400Z,2.50
2023-03-31T17:16:16.309Z,2.17
2023-03-31T17:18:46.614Z,2.55
2023-03-31T17:21:16.632Z,3.37
2023-03-31T17:23:44.283Z,4.03
2023-03-31T17:26:14.438Z,3.45
2023-03-31T17:28:42.951Z,2.83
2023-03-31T17:31:13.081Z,2.80
2023-03-31T17:33:41.879Z,3.17
2023-03-31T17:36:11.121Z,3.83
2023-03-31T17:38:39.742Z,3.72
2023-03-31T17:41:10.183Z,3.22
2023-03-31T17:43:38.288Z,2.90
2023-03-31T17:46:09.838Z,2.60
2023-03-31T17:48:39.194Z,3.55
2023-03-31T17:51:08.647Z,3.08
2023-03-31T17:53:36.555Z,3.15
2023-03-31T17:56:04.911Z,3.30
2023-03-31T17:58:32.995Z,3.60
2023-03-31T18:01:00.874Z,3.05
2023-03-31T18:03:29.322Z,3.45
2023-03-31T18:05:57.110Z,3.20
2023-03-31T18:08:24.555Z,3.42
2023-03-31T18:10:52.419Z,3.13
2023-03-31T18:13:19.903Z,3.58
2023-03-31T18:15:52.491Z,3.33
2023-03-31T18:18:20.995Z,3.12
2023-03-31T18:20:48.600Z,2.72
2023-03-31T18:23:16.143Z,3.53
2023-03-31T18:25:46.150Z,2.12
2023-03-31T18:28:15.324Z,2.80
2023-03-31T18:30:43.576Z,3.08
2023-03-31T18:33:12.754Z,2.90
2023-03-31T18:35:41.008Z,2.93
2023-03-31T18:38:09.769Z,3.00
2023-03-31T18:40:37.847Z,2.72
2023-03-31T18:43:05.841Z,2.78
2023-03-31T18:45:33.611Z,2.62
2023-03-31T18:48:02.507Z,2.70
2023-03-31T18:50:30.656Z,2.75
2023-03-31T18:52:59.108Z,3.10
2023-03-31T18:55:28.849Z,3.03
2023-03-31T18:57:56.920Z,3.58
2023-03-31T19:00:24.712Z,2.70
2023-03-31T19:02:53.672Z,2.53
2023-03-31T19:05:23.538Z,2.62
2023-03-31T19:07:51.603Z,3.03
2023-03-31T19:10:19.570Z,3.55
2023-03-31T19:12:47.876Z,3.40
2023-03-31T19:15:16.113Z,3.72
2023-03-31T19:17:44.104Z,3.55
2023-03-31T19:20:16.565Z,4.30
2023-03-31T19:22:45.812Z,5.35
2023-03-31T19:25:13.918Z,3.47
2023-03-31T19:27:42.409Z,3.30
2023-03-31T19:30:18.676Z,3.12
2023-03-31T19:32:48.790Z,2.67
2023-03-31T19:35:17.967Z,3.33
2023-03-31T19:37:46.606Z,2.20
2023-03-31T19:40:14.824Z,2.45
2023-03-31T19:42:44.231Z,2.75
2023-03-31T19:45:12.015Z,2.65
2023-03-31T19:47:39.641Z,2.67
2023-03-31T19:50:08.581Z,3.00
2023-03-31T19:52:36.647Z,3.00
2023-03-31T19:55:04.961Z,3.30
2023-03-31T19:57:32.788Z,3.35
2023-03-31T20:00:01.091Z,2.72
2023-03-31T20:02:33.289Z,3.10
2023-03-31T20:05:01.733Z,3.00
2023-03-31T20:07:30.180Z,3.45
2023-03-31T20:09:57.727Z,3.05
2023-03-31T20:12:26.017Z,2.53
2023-03-31T20:14:54.384Z,2.63
2023-03-31T20:17:22.919Z,2.40
2023-03-31T20:19:51.120Z,2.30
2023-03-31T20:22:19.359Z,3.40
2023-03-31T20:24:47.056Z,2.17
2023-03-31T20:27:15.023Z,2.30
2023-03-31T20:29:42.762Z,2.80
2023-03-31T20:32:10.557Z,2.28
2023-03-31T20:34:38.861Z,2.22
2023-03-31T20:37:06.543Z,2.90
2023-03-31T20:39:34.265Z,2.60
2023-03-31T20:42:02.074Z,3.33
2023-03-31T20:44:30.019Z,3.10
2023-03-31T20:46:59.105Z,3.00
2023-03-31T20:49:26.930Z,3.40
2023-03-31T20:51:54.748Z,3.20
2023-03-31T20:54:22.772Z,2.92
2023-03-31T20:56:51.377Z,2.70
2023-03-31T20:59:18.986Z,3.42
2023-03-31T21:01:49.521Z,2.65
2023-03-31T21:04:18.031Z,3.30
2023-03-31T21:06:47.410Z,3.10
2023-03-31T21:09:15.917Z,3.30
2023-03-31T21:11:43.703Z,3.22
2023-03-31T21:14:13.496Z,3.10
2023-03-31T21:16:41.268Z,2.60
2023-03-31T21:19:09.056Z,2.83
2023-03-31T21:21:37.736Z,3.25
2023-03-31T21:24:05.657Z,2.53
2023-03-31T21:26:33.413Z,2.40
2023-03-31T21:29:01.129Z,2.43
2023-03-31T21:31:28.866Z,2.70
2023-03-31T21:33:57.870Z,2.15
2023-03-31T21:36:26.764Z,2.28
2023-03-31T21:38:55.918Z,2.95
2023-03-31T21:41:27.162Z,2.40
2023-03-31T21:43:55.581Z,2.70
2023-03-31T21:46:26.913Z,2.78
2023-03-31T21:48:55.203Z,2.83
2023-03-31T21:51:23.644Z,2.87
2023-03-31T21:53:55.081Z,3.13
2023-03-31T21:56:24.172Z,2.78
2023-03-31T21:58:51.900Z,3.05
2023-03-31T22:01:20.590Z,2.80
2023-03-31T22:03:48.795Z,3.08
2023-03-31T22:06:16.514Z,2.37
2023-03-31T22:08:44.254Z,2.90
2023-03-31T22:11:12.906Z,2.90
2023-03-31T22:13:40.837Z,3.28
2023-03-31T22:16:20.079Z,3.28
2023-03-31T22:18:49.955Z,3.27
2023-03-31T22:21:20.601Z,3.20
2023-03-31T22:23:48.392Z,3.35
2023-03-31T22:26:15.870Z,2.70
2023-03-31T22:28:43.498Z,3.15
2023-03-31T22:31:11.582Z,3.37
2023-03-31T22:33:39.124Z,3.30
2023-03-31T22:36:07.369Z,3.30
2023-03-31T22:38:35.601Z,2.75
2023-03-31T22:41:03.180Z,3.15
2023-03-31T22:43:30.645Z,3.53
2023-03-31T22:46:03.110Z,3.00
2023-03-31T22:48:30.681Z,3.85
2023-03-31T22:50:59.519Z,3.42
2023-03-31T22:53:27.529Z,3.50
2023-03-31T22:55:54.950Z,2.80
2023-03-31T22:58:22.884Z,2.75
2023-03-31T23:00:57.970Z,3.20
2023-03-31T23:03:26.458Z,3.05
2023-03-31T23:05:54.090Z,3.35
2023-03-31T23:08:22.103Z,3.53
2023-03-31T23:10:57.767Z,3.50
2023-03-31T23:13:27.177Z,2.62
2023-03-31T23:15:54.996Z,2.60
2023-03-31T23:18:23.496Z,2.80
2023-03-31T23:20:51.011Z,2.73
2023-03-31T23:23:18.757Z,3.35
2023-03-31T23:25:46.287Z,3.55
2023-03-31T23:28:13.812Z,3.50
2023-03-31T23:30:41.901Z,3.78
2023-03-31T23:33:09.344Z,3.00
2023-03-31T23:35:37.833Z,2.83
2023-03-31T23:38:06.216Z,2.95
2023-03-31T23:40:33.831Z,2.90
2023-03-31T23:43:01.762Z,3.35
2023-03-31T23:45:29.667Z,2.40
2023-03-31T23:47:57.544Z,2.47
2023-03-31T23:50:25.035Z,2.58
2023-03-31T23:52:52.801Z,2.40
2023-03-31T23:55:20.736Z,2.45
2023-03-31T23:57:48.280Z,2.23
